Trieste / Ronchi Dei Legionari LIPQ

Flugplatz Daten

Name: Trieste / Ronchi Dei Legionari

Ident: LIPQ

Lat: 45,82749939

Long: 13,47220039

Platzhöhe: 39 ft

IataCode: TRS

City: Trieste

Homepage: http://www.aeroporto.fvg.it/

Metar

2021/12/04 00:20
LIPQ 040020Z AUTO 03005KT 9999 NCD M00/M02 Q1015

Taf

2021/12/03 00:21
TAF LIPQ 032300Z 0400/0424 VRB05KT 9999 SCT030
Gewünschte Webcam nicht vorhanden? Dann fügen Sie eine hinzu. Sie wird dann so schnell wie möglich freigeschaltet
Url: Title: